KMWC/MWC METAR and TAF weather

Enter ICAO airport designator
Station Type Date Time Source
KMWC METAR 2021/10/24 20:45 UTC NOAA

KMWC 242045Z 08008KT 10SM OVC028 11/03 A2993


Station Type Date Time Source
KMWC Decoded METAR 2021/10/24 20:45 UTC NOAA

Milwaukee / Timmerman, WI, United States (KMWC) 43-07N 088-02W
Oct 24, 2021 - 04:45 PM EDT / 2021.10.24 2045 UTC
Wind: from the E (080 degrees) at 9 MPH (8 KT):0
Visibility: 10 mile(s):0
Sky conditions: overcast
Temperature: 51 F (11 C)
Dew Point: 37 F (3 C)
Relative Humidity: 57%
Pressure (altimeter): 29.93 in. Hg (1013 hPa)
ob: KMWC 242045Z 08008KT 10SM OVC028 11/03 A2993
cycle: 21

Station Type Date Time Source
KMWC TAF UTC NOAA

Error!

Example: see airport list